Arches Natl Park, Utah
Current Conditions -  °F | °C
As of 6:53 PM on Saturday 22 Nov 2014 (Local Time) from KCNY Reporting Station
Overcast Overcast  
Wind Chill: 35°   Ceiling: 10000
Heat Index: 39°   Visibility: 10mi
Dew Point: 16°   Wind: 6mph
Humidity: 39%   Direction: 170°S
Pressure: 29.75"   Gusts: NA
Location:  38.7°N, 109.75°W
Report Text: KCNY 230153Z AUTO 17005KT 10SM OVC100 04/M09 A2975 RMK AO2 SLP090 T00391089
Loading
Personal Weather Stations






























Interactive Weather Map New forecast layout! Learn more

10-Day Weather Forecast

Advertisements
Track Severe Weather on mobile